createdAt,value
2019-01-13T00:01:47.261Z,6.94
2019-01-13T00:04:16.473Z,6.86
2019-01-13T00:06:45.628Z,6.83
2019-01-13T00:09:14.220Z,6.83
2019-01-13T00:11:42.231Z,6.89
2019-01-13T00:14:11.315Z,6.87
2019-01-13T00:16:42.666Z,6.86
2019-01-13T00:19:10.779Z,6.77
2019-01-13T00:21:38.757Z,6.77
2019-01-13T00:24:08.765Z,6.80
2019-01-13T00:26:36.747Z,6.80
2019-01-13T00:29:05.213Z,6.76
2019-01-13T00:31:34.541Z,6.73
2019-01-13T00:34:03.822Z,6.75
2019-01-13T00:36:33.567Z,6.70
2019-01-13T00:39:02.445Z,6.72
2019-01-13T00:41:30.512Z,6.76
2019-01-13T00:43:58.894Z,6.76
2019-01-13T00:46:27.194Z,6.76
2019-01-13T00:48:55.549Z,6.77
2019-01-13T00:51:25.379Z,6.74
2019-01-13T00:53:53.641Z,6.74
2019-01-13T00:56:21.792Z,6.75
2019-01-13T00:58:50.108Z,6.67
2019-01-13T01:01:18.414Z,6.61
2019-01-13T01:03:46.825Z,6.61
2019-01-13T01:06:17.247Z,6.65
2019-01-13T01:08:45.829Z,6.59
2019-01-13T01:11:13.925Z,6.62
2019-01-13T01:13:42.735Z,6.63
2019-01-13T01:16:13.047Z,6.73
2019-01-13T01:18:41.911Z,6.78
2019-01-13T01:21:09.999Z,6.78
2019-01-13T01:23:38.271Z,6.76
2019-01-13T01:26:06.277Z,6.76
2019-01-13T01:28:34.161Z,6.88
2019-01-13T01:31:02.689Z,6.88
2019-01-13T01:33:30.304Z,6.91
2019-01-13T01:35:59.337Z,6.87
2019-01-13T01:38:27.764Z,6.86
2019-01-13T01:40:55.840Z,6.80
2019-01-13T01:43:23.833Z,6.67
2019-01-13T01:45:52.057Z,6.56
2019-01-13T01:48:19.821Z,6.51
2019-01-13T01:50:48.151Z,6.51
2019-01-13T01:53:16.769Z,6.50
2019-01-13T01:55:44.788Z,6.44
2019-01-13T01:58:12.423Z,6.47
2019-01-13T02:00:40.854Z,6.54
2019-01-13T02:03:08.914Z,6.64
2019-01-13T02:05:36.802Z,6.64
2019-01-13T02:08:05.323Z,6.69
2019-01-13T02:10:33.414Z,6.69
2019-01-13T02:13:01.260Z,6.67
2019-01-13T02:15:29.705Z,6.67
2019-01-13T02:17:57.945Z,6.67
2019-01-13T02:20:28.121Z,6.78
2019-01-13T02:22:58.066Z,6.82
2019-01-13T02:25:29.738Z,6.79
2019-01-13T02:27:57.575Z,6.84
2019-01-13T02:30:27.258Z,6.80
2019-01-13T02:32:55.502Z,6.80
2019-01-13T02:35:23.658Z,6.80
2019-01-13T02:37:52.180Z,6.74
2019-01-13T02:40:20.954Z,6.82
2019-01-13T02:42:48.841Z,6.85
2019-01-13T02:45:19.786Z,6.92
2019-01-13T02:47:47.557Z,6.92
2019-01-13T02:50:15.575Z,6.88
2019-01-13T02:52:43.746Z,6.96
2019-01-13T02:55:12.096Z,6.89
2019-01-13T02:57:40.109Z,6.89
2019-01-13T03:00:14.454Z,7.02
2019-01-13T03:02:42.284Z,6.71
2019-01-13T03:05:14.078Z,7.07
2019-01-13T03:07:42.038Z,7.08
2019-01-13T03:10:16.149Z,7.14
2019-01-13T03:12:44.176Z,7.14
2019-01-13T03:15:19.509Z,7.12
2019-01-13T03:17:45.108Z,7.08
2019-01-13T03:20:13.061Z,7.08
2019-01-13T03:22:41.009Z,6.95
2019-01-13T03:25:12.166Z,6.95
2019-01-13T03:27:40.060Z,7.09
2019-01-13T03:30:10.802Z,7.09
2019-01-13T03:32:39.087Z,7.04
2019-01-13T03:35:07.860Z,6.98
2019-01-13T03:37:35.606Z,7.03
2019-01-13T03:40:06.396Z,6.92
2019-01-13T03:42:34.106Z,6.88
2019-01-13T03:45:04.878Z,6.88
2019-01-13T03:47:34.016Z,7.00
2019-01-13T03:50:03.121Z,7.01
2019-01-13T03:52:32.522Z,7.01
2019-01-13T03:55:00.550Z,7.13
2019-01-13T03:57:28.318Z,6.71
2019-01-13T03:59:56.210Z,7.15
2019-01-13T04:02:25.411Z,7.15
2019-01-13T04:04:53.039Z,7.15
2019-01-13T04:07:21.376Z,7.16
2019-01-13T04:09:48.985Z,7.16
2019-01-13T04:12:16.822Z,7.17
2019-01-13T04:14:44.891Z,7.27
2019-01-13T04:17:12.897Z,7.29
2019-01-13T04:19:40.879Z,7.30
2019-01-13T04:22:09.296Z,7.32
2019-01-13T04:24:36.941Z,7.33
2019-01-13T04:27:04.807Z,7.33
2019-01-13T04:29:32.709Z,7.32
2019-01-13T04:32:00.351Z,7.33
2019-01-13T04:34:31.511Z,7.33
2019-01-13T04:36:59.443Z,7.33
2019-01-13T04:39:27.097Z,7.39
2019-01-13T04:41:55.412Z,7.47
2019-01-13T04:44:24.325Z,7.48
2019-01-13T04:46:51.940Z,7.49
2019-01-13T04:49:19.542Z,7.45
2019-01-13T04:51:47.449Z,7.46
2019-01-13T04:54:15.226Z,7.39
2019-01-13T04:56:43.214Z,7.39
2019-01-13T04:59:11.448Z,7.49
2019-01-13T05:01:39.114Z,7.33
2019-01-13T05:04:06.727Z,7.33
2019-01-13T05:06:34.794Z,7.47
2019-01-13T05:09:04.019Z,7.55
2019-01-13T05:11:31.651Z,7.51
2019-01-13T05:13:59.819Z,7.51
2019-01-13T05:16:27.741Z,7.55
2019-01-13T05:18:55.420Z,7.55
2019-01-13T05:21:23.443Z,6.96
2019-01-13T05:23:51.073Z,6.96
2019-01-13T05:26:19.682Z,7.41
2019-01-13T05:28:47.853Z,7.41
2019-01-13T05:31:16.104Z,7.31
2019-01-13T05:33:43.739Z,7.29
2019-01-13T05:36:11.909Z,7.30
2019-01-13T05:38:39.679Z,7.38
2019-01-13T05:41:09.418Z,7.32
2019-01-13T05:43:39.135Z,7.30
2019-01-13T05:46:08.441Z,7.30
2019-01-13T05:48:36.293Z,7.29
2019-01-13T05:51:04.465Z,7.23
2019-01-13T05:53:32.256Z,7.23
2019-01-13T05:55:59.990Z,7.22
2019-01-13T05:58:28.228Z,7.18
2019-01-13T06:00:56.281Z,7.22
2019-01-13T06:03:24.367Z,7.08
2019-01-13T06:05:52.310Z,7.05
2019-01-13T06:08:20.519Z,7.05
2019-01-13T06:10:48.924Z,7.17
2019-01-13T06:13:19.903Z,7.17
2019-01-13T06:16:16.725Z,7.33
2019-01-13T06:18:44.877Z,7.30
2019-01-13T06:21:12.767Z,7.30
2019-01-13T06:23:40.784Z,7.32
2019-01-13T06:26:08.945Z,7.36
2019-01-13T06:28:36.980Z,7.46
2019-01-13T06:31:04.667Z,7.47
2019-01-13T06:33:35.463Z,7.47
2019-01-13T06:36:03.754Z,7.47
2019-01-13T06:38:31.633Z,7.54
2019-01-13T06:41:00.750Z,7.58
2019-01-13T06:43:28.479Z,7.62
2019-01-13T06:45:59.112Z,7.61
2019-01-13T06:48:26.777Z,7.61
2019-01-13T06:50:54.516Z,7.53
2019-01-13T06:53:23.602Z,7.52
2019-01-13T06:55:51.512Z,7.43
2019-01-13T06:58:19.255Z,7.43
2019-01-13T07:00:46.878Z,7.43
2019-01-13T07:03:14.447Z,7.43
2019-01-13T07:05:42.324Z,7.42
2019-01-13T07:08:10.160Z,7.48
2019-01-13T07:10:38.603Z,7.47
2019-01-13T07:13:06.244Z,7.49
2019-01-13T07:15:33.864Z,7.55
2019-01-13T07:18:02.237Z,7.61
2019-01-13T07:20:29.912Z,7.61
2019-01-13T07:22:58.256Z,7.51
2019-01-13T07:25:25.906Z,7.50
2019-01-13T07:27:53.870Z,7.57
2019-01-13T07:30:23.942Z,7.56
2019-01-13T07:32:51.684Z,7.64
2019-01-13T07:35:19.830Z,7.72
2019-01-13T07:37:48.143Z,7.77
2019-01-13T07:40:21.154Z,7.81
2019-01-13T07:42:49.328Z,7.85
2019-01-13T07:45:20.121Z,7.91
2019-01-13T07:47:47.807Z,7.99
2019-01-13T07:50:16.833Z,8.02
2019-01-13T07:52:45.760Z,8.01
2019-01-13T07:55:20.144Z,8.00
2019-01-13T07:57:48.304Z,8.10
2019-01-13T08:00:19.550Z,8.15
2019-01-13T08:02:47.446Z,7.85
2019-01-13T08:05:15.664Z,8.14
2019-01-13T08:07:43.992Z,8.19
2019-01-13T08:10:13.991Z,8.24
2019-01-13T08:12:42.975Z,8.24
2019-01-13T08:15:13.733Z,8.27
2019-01-13T08:17:41.629Z,8.31
2019-01-13T08:20:14.220Z,8.27
2019-01-13T08:22:42.807Z,8.16
2019-01-13T08:25:11.030Z,8.14
2019-01-13T08:27:39.426Z,8.10
2019-01-13T08:30:13.817Z,8.10
2019-01-13T08:32:41.928Z,8.16
2019-01-13T08:35:10.814Z,8.29
2019-01-13T08:37:39.523Z,8.39
2019-01-13T08:40:10.564Z,8.44
2019-01-13T08:42:38.543Z,8.47
2019-01-13T08:45:07.629Z,8.37
2019-01-13T08:47:36.189Z,8.33
2019-01-13T08:50:12.638Z,8.29
2019-01-13T08:52:46.466Z,8.36
2019-01-13T08:55:18.803Z,8.32
2019-01-13T08:57:50.391Z,8.18
2019-01-13T09:00:23.405Z,8.08
2019-01-13T09:02:54.882Z,7.97
2019-01-13T09:05:24.501Z,7.60
2019-01-13T09:07:53.115Z,8.11
2019-01-13T09:10:21.366Z,8.09
2019-01-13T09:12:56.931Z,8.06
2019-01-13T09:15:29.283Z,7.92
2019-01-13T09:17:57.281Z,7.82
2019-01-13T09:20:33.823Z,7.72
2019-01-13T09:23:07.568Z,7.36
2019-01-13T09:25:40.376Z,7.64
2019-01-13T09:28:09.521Z,7.58
2019-01-13T09:30:40.630Z,7.60
2019-01-13T09:33:09.352Z,7.64
2019-01-13T09:35:39.472Z,7.62
2019-01-13T09:38:11.982Z,7.60
2019-01-13T09:40:48.138Z,7.72
2019-01-13T09:43:17.765Z,7.67
2019-01-13T09:45:46.872Z,7.79
2019-01-13T09:48:17.212Z,7.85
2019-01-13T09:50:45.462Z,7.88
2019-01-13T09:53:14.051Z,7.94
2019-01-13T09:55:41.976Z,7.51
2019-01-13T09:58:13.665Z,8.06
2019-01-13T10:00:42.568Z,8.11
2019-01-13T10:03:11.565Z,7.98
2019-01-13T10:05:42.216Z,8.05
2019-01-13T10:08:14.481Z,8.08
2019-01-13T10:10:43.871Z,8.18
2019-01-13T10:13:11.941Z,8.23
2019-01-13T10:15:45.675Z,8.21
2019-01-13T10:18:14.151Z,8.14
2019-01-13T10:20:46.626Z,8.17
2019-01-13T10:23:14.847Z,8.23
2019-01-13T10:25:45.407Z,8.25
2019-01-13T10:28:14.724Z,7.97
2019-01-13T10:30:49.401Z,8.26
2019-01-13T10:33:17.290Z,8.33
2019-01-13T10:35:46.439Z,8.40
2019-01-13T10:38:15.699Z,8.52
2019-01-13T10:40:44.437Z,8.47
2019-01-13T10:43:12.977Z,8.50
2019-01-13T10:45:40.657Z,8.65
2019-01-13T10:48:08.519Z,8.78
2019-01-13T10:50:37.629Z,8.75
2019-01-13T10:53:07.610Z,8.67
2019-01-13T10:55:35.657Z,8.72
2019-01-13T10:58:04.537Z,8.59
2019-01-13T11:00:35.177Z,8.45
2019-01-13T11:03:05.802Z,8.44
2019-01-13T11:05:34.486Z,8.59
2019-01-13T11:08:11.096Z,8.60
2019-01-13T11:10:34.539Z,8.59
2019-01-13T11:13:05.386Z,8.61
2019-01-13T11:15:33.392Z,8.43
2019-01-13T11:18:01.542Z,8.57
2019-01-13T11:20:32.492Z,8.63
2019-01-13T11:23:00.513Z,8.69
2019-01-13T11:25:34.775Z,8.80
2019-01-13T11:28:03.914Z,8.46
2019-01-13T11:30:32.663Z,8.99
2019-01-13T11:33:00.715Z,9.06
2019-01-13T11:35:29.212Z,9.01
2019-01-13T11:37:57.103Z,9.08
2019-01-13T11:40:26.348Z,9.12
2019-01-13T11:42:54.706Z,9.14
2019-01-13T11:45:23.295Z,9.14
2019-01-13T11:47:51.247Z,9.11
2019-01-13T11:50:20.991Z,8.97
2019-01-13T11:52:49.869Z,9.00
2019-01-13T11:55:18.299Z,8.97
2019-01-13T11:57:46.209Z,8.83
2019-01-13T12:00:19.709Z,8.81
2019-01-13T12:02:48.025Z,8.77
2019-01-13T12:05:17.290Z,8.79
2019-01-13T12:07:46.720Z,8.66
2019-01-13T12:10:17.545Z,8.61
2019-01-13T12:12:46.446Z,8.65
2019-01-13T12:15:16.041Z,8.62
2019-01-13T12:17:47.098Z,8.69
2019-01-13T12:20:19.602Z,8.75
2019-01-13T12:22:47.883Z,8.79
2019-01-13T12:25:16.625Z,8.87
2019-01-13T12:27:44.558Z,8.98
2019-01-13T12:30:19.112Z,8.88
2019-01-13T12:32:52.047Z,9.04
2019-01-13T12:35:21.859Z,8.95
2019-01-13T12:37:50.124Z,8.89
2019-01-13T12:40:19.849Z,8.95
2019-01-13T12:42:51.509Z,8.91
2019-01-13T12:45:23.385Z,8.97
2019-01-13T12:47:51.424Z,9.00
2019-01-13T12:50:24.645Z,9.07
2019-01-13T12:52:52.866Z,9.15
2019-01-13T12:55:23.707Z,9.19
2019-01-13T12:57:51.466Z,9.28
2019-01-13T13:00:20.296Z,9.38
2019-01-13T13:02:48.000Z,9.42
2019-01-13T13:05:16.909Z,9.39
2019-01-13T13:07:50.461Z,9.45
2019-01-13T13:10:24.630Z,9.51
2019-01-13T13:12:55.875Z,9.52
2019-01-13T13:15:24.136Z,9.54
2019-01-13T13:17:52.161Z,9.53
2019-01-13T13:20:20.180Z,9.55
2019-01-13T13:22:49.903Z,9.59
2019-01-13T13:25:18.051Z,9.67
2019-01-13T13:27:46.579Z,9.60
2019-01-13T13:30:17.550Z,9.61
2019-01-13T13:32:46.022Z,9.55
2019-01-13T13:35:13.980Z,9.59
2019-01-13T13:37:42.313Z,9.64
2019-01-13T13:40:11.480Z,9.71
2019-01-13T13:42:39.235Z,9.70
2019-01-13T13:45:08.411Z,9.65
2019-01-13T13:47:36.817Z,9.66
2019-01-13T13:50:09.663Z,9.65
2019-01-13T13:52:37.993Z,9.66
2019-01-13T13:55:08.002Z,9.70
2019-01-13T13:57:37.843Z,9.76
2019-01-13T14:00:19.028Z,9.75
2019-01-13T14:02:47.731Z,9.78
2019-01-13T14:05:16.280Z,9.89
2019-01-13T14:07:48.657Z,9.76
2019-01-13T14:10:21.004Z,9.72
2019-01-13T14:12:48.749Z,9.69
2019-01-13T14:15:16.901Z,9.67
2019-01-13T14:17:44.899Z,9.71
2019-01-13T14:20:15.008Z,9.72
2019-01-13T14:22:45.340Z,9.70
2019-01-13T14:25:13.325Z,9.75
2019-01-13T14:27:42.968Z,9.78
2019-01-13T14:30:17.835Z,9.79
2019-01-13T14:32:48.408Z,9.80
2019-01-13T14:35:42.523Z,9.76
2019-01-13T14:38:11.463Z,9.72
2019-01-13T14:40:44.929Z,9.73
2019-01-13T14:43:16.287Z,9.67
2019-01-13T14:45:44.887Z,9.34
2019-01-13T14:48:15.533Z,9.77
2019-01-13T14:50:43.323Z,9.70
2019-01-13T14:53:11.603Z,9.77
2019-01-13T14:55:40.336Z,9.74
2019-01-13T14:58:08.996Z,9.80
2019-01-13T15:00:36.922Z,9.84
2019-01-13T15:03:08.261Z,9.82
2019-01-13T15:05:36.207Z,9.80
2019-01-13T15:08:04.156Z,9.89
2019-01-13T15:10:40.905Z,9.47
2019-01-13T15:13:08.845Z,9.99
2019-01-13T15:15:38.336Z,10.06
2019-01-13T15:18:06.690Z,10.09
2019-01-13T15:20:35.907Z,10.07
2019-01-13T15:23:06.185Z,9.96
2019-01-13T15:25:35.514Z,10.03
2019-01-13T15:28:09.638Z,10.08
2019-01-13T15:30:40.138Z,10.11
2019-01-13T15:33:09.213Z,10.07
2019-01-13T15:35:37.763Z,10.03
2019-01-13T15:38:09.089Z,9.96
2019-01-13T15:40:37.315Z,9.97
2019-01-13T15:43:06.116Z,10.07
2019-01-13T15:45:35.452Z,10.10
2019-01-13T15:48:03.638Z,10.16
2019-01-13T15:50:33.263Z,10.15
2019-01-13T15:53:05.785Z,9.70
2019-01-13T15:55:34.325Z,10.12
2019-01-13T15:58:12.464Z,10.01
2019-01-13T16:00:40.719Z,9.91
2019-01-13T16:03:11.714Z,9.71
2019-01-13T16:05:42.807Z,9.60
2019-01-13T16:08:13.013Z,9.58
2019-01-13T16:10:42.175Z,9.58
2019-01-13T16:13:10.897Z,9.48
2019-01-13T16:15:39.820Z,9.47
2019-01-13T16:18:15.494Z,9.44
2019-01-13T16:20:44.451Z,9.40
2019-01-13T16:23:14.800Z,9.43
2019-01-13T16:25:43.875Z,9.50
2019-01-13T16:28:15.413Z,9.46
2019-01-13T16:30:44.875Z,9.53
2019-01-13T16:33:13.037Z,9.30
2019-01-13T16:35:43.351Z,9.64
2019-01-13T16:38:13.904Z,9.67
2019-01-13T16:40:43.788Z,9.66
2019-01-13T16:43:14.317Z,9.73
2019-01-13T16:45:43.462Z,9.37
2019-01-13T16:48:15.767Z,9.82
2019-01-13T16:50:48.025Z,9.81
2019-01-13T16:53:26.826Z,9.78
2019-01-13T16:55:55.988Z,9.87
2019-01-13T16:58:26.247Z,9.95
2019-01-13T17:00:59.417Z,9.96
2019-01-13T17:03:28.527Z,9.98
2019-01-13T17:05:59.060Z,10.05
2019-01-13T17:08:28.903Z,10.08
2019-01-13T17:10:58.803Z,9.71
2019-01-13T17:13:27.838Z,10.12
2019-01-13T17:15:56.189Z,10.12
2019-01-13T17:18:25.145Z,10.02
2019-01-13T17:20:58.414Z,9.98
2019-01-13T17:23:26.396Z,10.04
2019-01-13T17:25:56.538Z,10.06
2019-01-13T17:28:25.229Z,10.03
2019-01-13T17:30:53.180Z,10.02
2019-01-13T17:33:21.960Z,9.91
2019-01-13T17:35:52.068Z,9.79
2019-01-13T17:38:23.304Z,9.72
2019-01-13T17:40:54.243Z,9.73
2019-01-13T17:43:22.235Z,9.68
2019-01-13T17:45:50.394Z,9.63
2019-01-13T17:48:20.711Z,9.64
2019-01-13T17:50:50.662Z,9.60
2019-01-13T17:53:19.269Z,9.58
2019-01-13T17:55:53.240Z,9.58
2019-01-13T17:58:29.793Z,9.58
2019-01-13T18:01:36.562Z,9.55
2019-01-13T18:04:11.058Z,9.50
2019-01-13T18:06:40.603Z,9.38
2019-01-13T18:09:22.058Z,9.26
2019-01-13T18:11:53.755Z,9.13
2019-01-13T18:14:22.192Z,9.13
2019-01-13T18:16:55.601Z,9.12
2019-01-13T18:19:24.279Z,9.11
2019-01-13T18:21:52.311Z,9.13
2019-01-13T18:24:21.122Z,9.12
2019-01-13T18:26:52.357Z,9.15
2019-01-13T18:29:21.570Z,9.18
2019-01-13T18:31:49.619Z,9.24
2019-01-13T18:34:18.634Z,9.20
2019-01-13T18:36:46.614Z,9.27
2019-01-13T18:39:17.073Z,9.32
2019-01-13T18:41:45.679Z,9.33
2019-01-13T18:44:13.802Z,9.31
2019-01-13T18:46:41.938Z,9.41
2019-01-13T18:49:10.666Z,9.36
2019-01-13T18:51:38.353Z,9.36
2019-01-13T18:54:06.273Z,9.35
2019-01-13T18:56:34.450Z,9.41
2019-01-13T18:59:03.962Z,9.51
2019-01-13T19:01:32.382Z,9.53
2019-01-13T19:04:01.995Z,9.56
2019-01-13T19:06:30.915Z,9.45
2019-01-13T19:08:59.069Z,9.31
2019-01-13T19:11:33.236Z,9.12
2019-01-13T19:14:27.814Z,8.84
2019-01-13T19:17:23.551Z,8.60
2019-01-13T19:20:24.321Z,8.51
2019-01-13T19:22:57.286Z,8.49
2019-01-13T19:25:31.222Z,8.51
2019-01-13T19:27:59.305Z,8.53
2019-01-13T19:30:27.717Z,8.29
2019-01-13T19:32:56.120Z,7.70
2019-01-13T19:35:24.262Z,6.85
2019-01-13T19:37:52.412Z,6.85
2019-01-13T19:40:20.899Z,6.45
2019-01-13T19:42:50.277Z,6.04
2019-01-13T19:45:20.084Z,5.83
2019-01-13T19:47:49.561Z,5.83
2019-01-13T19:50:27.063Z,5.74
2019-01-13T19:53:00.502Z,5.67
2019-01-13T19:55:29.985Z,5.65
2019-01-13T19:58:03.366Z,5.62
2019-01-13T20:00:35.636Z,5.63
2019-01-13T20:03:06.468Z,5.70
2019-01-13T20:05:37.294Z,5.86
2019-01-13T20:08:06.756Z,5.89
2019-01-13T20:10:35.090Z,5.98
2019-01-13T20:13:04.273Z,6.05
2019-01-13T20:15:33.381Z,6.12
2019-01-13T20:18:01.680Z,6.24
2019-01-13T20:20:30.735Z,6.33
2019-01-13T20:23:02.350Z,6.30
2019-01-13T20:25:30.779Z,6.34
2019-01-13T20:27:58.865Z,6.33
2019-01-13T20:30:32.436Z,6.32
2019-01-13T20:33:02.307Z,6.39
2019-01-13T20:35:31.513Z,6.39
2019-01-13T20:37:59.512Z,6.41
2019-01-13T20:40:27.265Z,6.49
2019-01-13T20:42:55.298Z,6.53
2019-01-13T20:45:29.648Z,6.68
2019-01-13T20:47:57.864Z,6.80
2019-01-13T20:50:28.507Z,6.78
2019-01-13T20:52:57.983Z,6.77
2019-01-13T20:55:26.104Z,6.76
2019-01-13T20:57:56.692Z,6.80
2019-01-13T21:00:25.706Z,6.71
2019-01-13T21:02:54.249Z,6.67
2019-01-13T21:05:26.551Z,6.54
2019-01-13T21:07:52.688Z,6.66
2019-01-13T21:10:20.914Z,6.66
2019-01-13T21:12:48.896Z,6.66
2019-01-13T21:15:22.633Z,6.60
2019-01-13T21:17:57.382Z,6.70
2019-01-13T21:20:21.521Z,6.80
2019-01-13T21:22:49.522Z,6.84
2019-01-13T21:25:20.928Z,6.94
2019-01-13T21:27:48.863Z,7.02
2019-01-13T21:30:19.382Z,7.08
2019-01-13T21:32:47.211Z,7.06
2019-01-13T21:35:16.102Z,7.16
2019-01-13T21:37:43.863Z,7.01
2019-01-13T21:40:12.515Z,7.03
2019-01-13T21:42:40.335Z,7.07
2019-01-13T21:45:10.833Z,7.07
2019-01-13T21:47:38.911Z,7.14
2019-01-13T21:50:08.934Z,7.14
2019-01-13T21:52:36.750Z,7.27
2019-01-13T21:55:05.984Z,7.27
2019-01-13T21:57:33.639Z,7.27
2019-01-13T22:00:09.743Z,7.12
2019-01-13T22:02:37.513Z,7.06
2019-01-13T22:05:06.810Z,7.11
2019-01-13T22:07:34.784Z,7.11
2019-01-13T22:10:03.571Z,7.17
2019-01-13T22:12:31.616Z,7.17
2019-01-13T22:14:59.739Z,7.12
2019-01-13T22:17:27.678Z,6.74
2019-01-13T22:19:55.838Z,7.12
2019-01-13T22:22:23.803Z,7.30
2019-01-13T22:24:51.499Z,7.42
2019-01-13T22:27:21.347Z,7.42
2019-01-13T22:29:49.062Z,7.54
2019-01-13T22:32:16.730Z,7.12
2019-01-13T22:34:44.665Z,7.12
2019-01-13T22:37:13.092Z,7.56
2019-01-13T22:39:40.994Z,7.57
2019-01-13T22:42:09.050Z,7.57
2019-01-13T22:44:36.718Z,7.59
2019-01-13T22:47:04.654Z,7.59
2019-01-13T22:49:32.777Z,7.61
2019-01-13T22:52:00.540Z,7.61
2019-01-13T22:54:28.441Z,7.59
2019-01-13T22:56:57.554Z,7.58
2019-01-13T22:59:25.315Z,7.62
2019-01-13T23:01:53.706Z,7.50
2019-01-13T23:04:21.921Z,7.50
2019-01-13T23:06:49.894Z,7.51
2019-01-13T23:09:17.545Z,7.47
2019-01-13T23:11:45.464Z,7.47
2019-01-13T23:14:13.460Z,7.52
2019-01-13T23:16:41.510Z,7.52
2019-01-13T23:19:10.517Z,7.44
2019-01-13T23:21:38.403Z,7.21
2019-01-13T23:24:06.242Z,7.14
2019-01-13T23:26:34.337Z,7.10
2019-01-13T23:29:02.408Z,7.10
2019-01-13T23:31:30.241Z,7.24
2019-01-13T23:33:58.175Z,7.24
2019-01-13T23:36:26.313Z,7.27
2019-01-13T23:38:54.141Z,7.41
2019-01-13T23:41:22.242Z,7.30
2019-01-13T23:43:49.905Z,7.30
2019-01-13T23:46:17.823Z,7.46
2019-01-13T23:48:45.530Z,7.41
2019-01-13T23:51:14.608Z,7.41
2019-01-13T23:53:42.375Z,7.53
2019-01-13T23:56:10.163Z,7.53
2019-01-13T23:58:38.134Z,7.64
